Time;durP1;ratioP1;P1;durP2;ratioP2;P2;SDS_P1;SDS_P2;PMS_P1;PMS_P2;Temp;Humidity;BMP_temperature;BMP_pressure;BME280_temperature;BME280_humidity;BME280_pressure;Samples;Min_cycle;Max_cycle;Signal;HPM_P1;HPM_P2
2023/12/09 00:02:39;;;;;;;15.10;7.45;;;;;;;4.32;66.54;99709.19;10500216;28;20055;-64
2023/12/09 00:07:41;;;;;;;21.52;7.90;;;;;;;4.32;66.57;99713.50;10520135;28;20083;-63
2023/12/09 00:12:43;;;;;;;15.35;7.47;;;;;;;4.37;66.48;99715.00;10520996;28;20054;-63
2023/12/09 00:17:46;;;;;;;13.40;6.25;;;;;;;4.44;66.43;99710.44;10520266;28;20124;-63
2023/12/09 00:22:47;;;;;;;13.23;6.95;;;;;;;4.47;66.64;99712.94;10519895;28;20117;-63
2023/12/09 00:27:49;;;;;;;15.00;7.63;;;;;;;4.41;66.37;99703.63;10520261;28;20403;-63
2023/12/09 00:32:51;;;;;;;27.90;9.85;;;;;;;4.30;66.64;99720.50;10519422;28;20058;-64
2023/12/09 00:37:54;;;;;;;15.38;7.13;;;;;;;4.10;66.75;99735.91;10534303;27;20131;-63
2023/12/09 00:42:55;;;;;;;28.75;8.70;;;;;;;4.08;67.08;99729.97;10519112;28;20044;-63
2023/12/09 00:47:59;;;;;;;16.92;8.55;;;;;;;4.17;66.96;99722.69;10519251;28;20123;-63
2023/12/09 00:53:01;;;;;;;16.02;8.18;;;;;;;4.26;66.82;99721.50;10519222;28;20044;-64
2023/12/09 00:58:03;;;;;;;18.02;7.20;;;;;;;4.25;66.67;99714.66;10518844;28;20101;-63
2023/12/09 01:03:06;;;;;;;16.33;7.05;;;;;;;4.24;66.83;99718.13;10518525;28;20058;-64
2023/12/09 01:08:08;;;;;;;18.35;7.95;;;;;;;4.09;66.74;99709.19;10500706;28;20143;-64
2023/12/09 01:13:10;;;;;;;22.73;7.78;;;;;;;3.95;66.91;99714.03;10517977;28;20046;-64
2023/12/09 01:18:12;;;;;;;15.20;7.53;;;;;;;3.72;66.94;99714.81;10517998;28;20052;-64
2023/12/09 01:23:14;;;;;;;17.42;7.97;;;;;;;3.63;66.90;99729.81;10500655;28;20044;-63
2023/12/09 01:28:16;;;;;;;17.55;6.93;;;;;;;3.51;67.11;99730.25;10516997;28;20055;-63
2023/12/09 01:33:18;;;;;;;15.23;6.72;;;;;;;3.40;67.36;99740.09;10516852;28;20044;-63
2023/12/09 01:38:20;;;;;;;14.70;7.00;;;;;;;3.36;67.35;99730.75;10517784;28;20611;-63
2023/12/09 01:43:23;;;;;;;16.80;7.03;;;;;;;3.41;67.42;99737.47;10516933;28;20055;-64
2023/12/09 01:48:25;;;;;;;14.90;7.47;;;;;;;3.53;67.20;99725.88;10517455;28;20048;-63
2023/12/09 01:53:29;;;;;;;20.55;7.40;;;;;;;3.60;67.37;99735.94;10517342;28;20131;-63
2023/12/09 01:58:33;;;;;;;18.50;7.53;;;;;;;3.73;67.14;99732.03;10499281;28;20054;-64
2023/12/09 02:03:36;;;;;;;14.50;6.15;;;;;;;3.58;67.25;99727.38;10516309;28;20047;-63
2023/12/09 02:08:39;;;;;;;17.60;7.10;;;;;;;3.54;67.59;99715.47;10498122;28;20044;-63
2023/12/09 02:14:32;;;;;;;12.57;6.68;;;;;;;3.67;67.55;99714.16;10516298;28;20040;-63
2023/12/09 02:19:35;;;;;;;;;;;;;;;3.69;67.54;99706.31;10315954;28;20159;-64
2023/12/09 02:24:37;;;;;;;11.80;5.90;;;;;;;3.80;67.29;99706.81;10470908;28;20027;-63
2023/12/09 02:30:03;;;;;;;13.02;5.82;;;;;;;3.50;67.43;99690.63;10515278;28;20440;-64
2023/12/09 02:35:08;;;;;;;17.13;7.85;;;;;;;3.59;67.59;99679.13;10516219;28;20134;-63
2023/12/09 02:40:11;;;;;;;11.02;5.95;;;;;;;3.67;67.34;99680.53;10497936;28;20739;-64
2023/12/09 02:45:13;;;;;;;12.88;6.53;;;;;;;3.69;67.24;99668.38;10516522;28;20044;-63
2023/12/09 02:50:15;;;;;;;22.92;6.03;;;;;;;3.73;67.14;99654.44;10497470;28;20313;-63
2023/12/09 02:55:17;;;;;;;15.40;7.50;;;;;;;3.75;67.03;99663.00;10496764;28;20056;-63
2023/12/09 03:00:20;;;;;;;13.95;5.72;;;;;;;3.69;67.09;99652.03;10515217;28;20066;-64
2023/12/09 03:05:22;;;;;;;12.88;6.18;;;;;;;3.70;67.17;99656.31;10523370;28;20083;-63
2023/12/09 03:10:24;;;;;;;17.20;6.50;;;;;;;3.75;66.93;99657.81;10522967;28;20048;-63
2023/12/09 03:15:26;;;;;;;11.95;6.00;;;;;;;3.69;67.03;99659.78;10505184;28;20504;-63
2023/12/09 03:20:28;;;;;;;11.88;5.25;;;;;;;3.60;66.71;99667.88;10488109;28;20101;-64
2023/12/09 03:25:32;;;;;;;12.45;6.20;;;;;;;3.42;66.74;99673.69;10522673;28;20146;-63
2023/12/09 03:30:34;;;;;;;15.32;5.47;;;;;;;3.19;67.24;99655.56;10521798;28;20044;-63
2023/12/09 03:35:36;;;;;;;11.43;5.30;;;;;;;3.04;67.21;99660.34;10521994;28;20061;-63
2023/12/09 03:40:38;;;;;;;11.68;6.18;;;;;;;2.95;67.21;99655.47;10522295;28;20054;-63
2023/12/09 03:45:41;;;;;;;15.68;6.53;;;;;;;3.00;67.45;99658.75;10521549;28;20128;-63
2023/12/09 03:50:43;;;;;;;12.35;6.15;;;;;;;3.12;67.55;99664.38;10521051;28;20044;-64
2023/12/09 03:55:45;;;;;;;12.25;6.30;;;;;;;3.22;67.44;99661.44;10536315;27;20051;-64
2023/12/09 04:00:47;;;;;;;10.77;5.63;;;;;;;3.29;67.60;99651.75;10519609;28;20129;-63
2023/12/09 04:05:50;;;;;;;15.95;6.18;;;;;;;3.35;67.41;99636.88;10521345;28;20129;-65
2023/12/09 04:10:52;;;;;;;11.32;5.47;;;;;;;3.40;67.48;99642.72;10502397;28;20044;-65
2023/12/09 04:15:54;;;;;;;14.07;6.38;;;;;;;3.40;67.04;99644.44;10519216;28;20040;-62
2023/12/09 04:20:56;;;;;;;14.10;6.22;;;;;;;3.40;67.14;99653.06;10519099;28;20404;-64
2023/12/09 04:25:58;;;;;;;12.23;6.22;;;;;;;3.51;67.15;99637.19;10520125;28;20059;-64
2023/12/09 04:31:00;;;;;;;15.20;6.00;;;;;;;3.57;67.13;99622.28;10519123;28;20071;-64
2023/12/09 04:36:02;;;;;;;12.05;5.38;;;;;;;3.43;67.18;99624.53;10519478;28;20097;-64
2023/12/09 04:41:05;;;;;;;12.88;5.95;;;;;;;3.33;67.37;99609.41;10519252;28;20039;-64
2023/12/09 04:46:07;;;;;;;10.07;4.90;;;;;;;3.14;67.79;99610.94;10518863;28;20404;-64
2023/12/09 04:51:09;;;;;;;10.13;4.75;;;;;;;3.20;67.86;99627.06;10519310;28;20048;-64
2023/12/09 04:56:11;;;;;;;11.95;5.55;;;;;;;3.27;67.64;99607.03;10518878;28;20089;-64
2023/12/09 05:01:13;;;;;;;16.75;6.78;;;;;;;3.24;67.79;99610.56;10517850;28;20148;-65
2023/12/09 05:06:15;;;;;;;15.77;6.45;;;;;;;3.26;67.52;99607.91;10501373;28;20413;-64
2023/12/09 05:11:18;;;;;;;13.07;5.63;;;;;;;3.13;67.82;99598.91;10517911;28;20123;-64
2023/12/09 05:16:20;;;;;;;11.65;5.82;;;;;;;3.04;68.11;99610.41;10500931;28;20048;-64
2023/12/09 05:21:22;;;;;;;10.88;5.78;;;;;;;3.12;67.94;99598.06;10517591;28;20531;-64
2023/12/09 05:26:37;;;;;;;23.52;6.93;;;;;;;3.25;67.84;99599.34;10517226;28;20047;-64
2023/12/09 05:31:40;;;;;;;22.33;5.40;;;;;;;3.27;67.64;99591.53;10517725;28;20051;-65
2023/12/09 05:36:42;;;;;;;21.88;5.15;;;;;;;3.33;67.72;99587.00;10518150;28;20739;-64
2023/12/09 05:41:44;;;;;;;18.60;4.80;;;;;;;3.22;67.36;99567.56;10516134;28;20084;-64
2023/12/09 05:46:46;;;;;;;13.13;6.10;;;;;;;3.20;67.87;99566.78;10516127;28;20558;-64
2023/12/09 05:51:48;;;;;;;12.45;6.53;;;;;;;3.22;67.82;99575.31;10516573;28;20094;-64
2023/12/09 05:56:50;;;;;;;12.52;6.38;;;;;;;3.28;67.72;99573.38;10516374;28;20052;-64
2023/12/09 06:01:52;;;;;;;14.07;5.60;;;;;;;3.46;67.56;99561.50;10498775;28;20070;-64
2023/12/09 06:06:54;;;;;;;13.13;5.65;;;;;;;3.39;67.46;99566.09;10499265;28;20048;-64
2023/12/09 06:11:56;;;;;;;9.45;4.80;;;;;;;3.39;67.60;99553.16;10516990;28;20063;-63
2023/12/09 06:16:58;;;;;;;10.60;6.28;;;;;;;3.42;67.74;99562.53;10516274;28;20471;-64
2023/12/09 06:22:00;;;;;;;25.70;5.43;;;;;;;3.41;67.29;99558.28;10516643;28;20048;-64
2023/12/09 06:27:03;;;;;;;10.68;5.53;;;;;;;3.35;67.54;99555.91;10516859;28;20058;-63
2023/12/09 06:32:06;;;;;;;13.25;5.90;;;;;;;3.37;67.35;99562.72;10481703;28;20139;-64
2023/12/09 06:37:08;;;;;;;14.18;6.82;;;;;;;3.45;67.18;99559.84;10500470;28;20131;-63
2023/12/09 06:42:10;;;;;;;13.90;6.63;;;;;;;3.53;67.24;99542.31;10506077;28;20044;-63
2023/12/09 06:47:12;;;;;;;11.93;5.65;;;;;;;3.60;66.92;99549.75;10506070;28;20075;-63
2023/12/09 06:52:14;;;;;;;10.32;5.38;;;;;;;3.49;67.10;99554.50;10499334;28;20055;-63
2023/12/09 06:57:16;;;;;;;12.68;6.18;;;;;;;3.50;67.43;99555.31;10505511;28;20405;-63
2023/12/09 07:02:18;;;;;;;15.75;5.95;;;;;;;3.56;67.18;99553.38;10504969;28;20468;-63
2023/12/09 07:07:20;;;;;;;13.20;6.22;;;;;;;3.63;67.27;99561.75;10523486;28;20070;-64
2023/12/09 07:12:23;;;;;;;12.23;5.80;;;;;;;3.66;67.11;99564.22;10521266;28;20105;-64
2023/12/09 07:17:26;;;;;;;19.05;6.25;;;;;;;3.70;67.10;99556.28;10522607;28;20401;-64
2023/12/09 07:22:28;;;;;;;21.13;6.65;;;;;;;3.71;67.26;99557.13;10522967;28;20056;-64
2023/12/09 07:27:30;;;;;;;10.65;5.70;;;;;;;3.77;67.03;99537.06;10522765;28;20144;-64
2023/12/09 07:32:32;;;;;;;10.73;5.88;;;;;;;3.79;67.18;99542.16;10522730;28;20044;-65
2023/12/09 07:37:34;;;;;;;12.35;6.63;;;;;;;3.88;66.94;99533.25;10522192;28;20045;-65
2023/12/09 07:42:36;;;;;;;12.02;6.20;;;;;;;3.98;66.91;99543.16;10503688;28;20458;-64
2023/12/09 07:47:38;;;;;;;13.07;5.63;;;;;;;3.93;66.79;99544.22;10501771;28;20129;-64
2023/12/09 07:52:41;;;;;;;12.77;5.38;;;;;;;3.79;67.19;99540.41;10497038;28;20044;-64
2023/12/09 07:57:43;;;;;;;11.57;5.35;;;;;;;3.72;67.27;99532.97;10501171;28;21062;-64
2023/12/09 08:02:45;;;;;;;12.25;5.82;;;;;;;3.71;67.34;99513.16;10519976;28;20044;-64
2023/12/09 08:07:47;;;;;;;11.43;5.57;;;;;;;3.83;67.33;99489.41;10518407;28;20152;-65
2023/12/09 08:12:49;;;;;;;10.05;5.45;;;;;;;3.71;67.56;99480.38;10514447;28;20122;-64
2023/12/09 08:17:51;;;;;;;12.52;6.05;;;;;;;3.43;68.29;99482.34;10517956;28;20159;-63
2023/12/09 08:22:53;;;;;;;21.23;6.95;;;;;;;3.46;68.19;99463.28;10519487;28;20044;-63
2023/12/09 08:27:55;;;;;;;13.88;6.38;;;;;;;3.44;68.47;99453.00;10516877;28;20043;-63
2023/12/09 08:32:58;;;;;;;10.63;5.93;;;;;;;3.50;68.29;99439.00;10517320;28;20055;-63
2023/12/09 08:38:00;;;;;;;11.38;5.70;;;;;;;3.58;68.27;99429.19;10497009;28;20093;-63
2023/12/09 08:43:02;;;;;;;13.30;6.53;;;;;;;3.77;67.91;99415.50;10517882;28;20051;-63
2023/12/09 08:48:04;;;;;;;24.85;7.60;;;;;;;3.86;67.57;99409.16;10518321;28;20040;-63
2023/12/09 08:53:08;;;;;;;20.27;7.25;;;;;;;4.04;67.62;99392.00;10516172;28;20051;-64
2023/12/09 08:58:10;;;;;;;11.75;6.05;;;;;;;4.24;67.17;99381.66;10516599;28;20063;-63
2023/12/09 09:03:13;;;;;;;14.48;6.53;;;;;;;4.26;67.04;99375.50;10517399;28;20051;-63
2023/12/09 09:08:15;;;;;;;21.05;8.07;;;;;;;4.38;67.09;99374.97;10517244;28;20083;-63
2023/12/09 09:13:17;;;;;;;14.77;7.57;;;;;;;4.49;66.77;99372.78;10516098;28;20052;-63
2023/12/09 09:18:21;;;;;;;16.27;8.00;;;;;;;4.61;66.79;99356.69;10512338;28;20166;-64
2023/12/09 09:23:23;;;;;;;19.17;7.55;;;;;;;4.74;66.69;99382.06;10517223;28;20048;-64
2023/12/09 09:28:25;;;;;;;10.27;6.05;;;;;;;4.85;66.58;99387.56;10518194;28;20036;-63
2023/12/09 09:33:27;;;;;;;11.85;6.30;;;;;;;5.06;66.64;99386.59;10494205;28;20106;-64
2023/12/09 09:38:32;;;;;;;12.30;5.72;;;;;;;5.17;66.46;99392.13;10516010;28;20036;-63
2023/12/09 09:43:39;;;;;;;9.65;5.55;;;;;;;5.37;66.07;99385.09;10508741;28;20051;-63
2023/12/09 09:48:43;;;;;;;12.38;6.40;;;;;;;5.58;66.17;99372.88;10515684;28;20044;-64
2023/12/09 09:54:03;;;;;;;12.05;5.90;;;;;;;5.57;66.06;99378.13;10516745;28;20102;-64
2023/12/09 09:59:06;;;;;;;12.40;6.03;;;;;;;5.57;66.42;99368.59;10503338;28;20052;-64
2023/12/09 10:04:08;;;;;;;12.95;5.80;;;;;;;5.67;66.51;99351.69;10491061;28;20113;-64
2023/12/09 10:09:11;;;;;;;14.73;6.00;;;;;;;5.69;66.76;99323.06;10492294;28;20044;-63
2023/12/09 10:14:14;;;;;;;11.88;6.30;;;;;;;5.89;66.62;99309.94;10493452;28;20051;-64
2023/12/09 10:19:19;;;;;;;14.55;6.10;;;;;;;5.77;66.88;99301.00;10517290;28;20048;-64
2023/12/09 10:24:21;;;;;;;12.23;5.53;;;;;;;5.99;66.66;99285.19;10499555;28;20064;-64
2023/12/09 10:29:24;;;;;;;9.90;5.20;;;;;;;6.07;66.71;99259.66;10517703;28;20044;-64
2023/12/09 10:34:27;;;;;;;16.27;7.55;;;;;;;6.23;66.68;99229.38;10483593;28;20507;-67
2023/12/09 10:39:29;;;;;;;10.68;5.45;;;;;;;6.59;66.43;99211.03;10517520;28;20408;-67
2023/12/09 10:44:31;;;;;;;12.90;3.83;;;;;;;6.82;66.75;99187.19;10517681;28;20047;-67
2023/12/09 10:49:34;;;;;;;8.05;2.72;;;;;;;7.17;66.42;99170.41;10516680;28;20036;-66
2023/12/09 10:54:37;;;;;;;7.18;2.50;;;;;;;7.77;66.02;99150.34;10515924;28;20178;-66
2023/12/09 10:59:40;;;;;;;7.63;3.47;;;;;;;8.32;65.27;99127.81;10481672;28;20063;-66
2023/12/09 11:04:43;;;;;;;6.20;2.67;;;;;;;8.73;64.71;99117.31;10498630;28;20055;-66
2023/12/09 11:09:45;;;;;;;8.38;3.53;;;;;;;8.68;64.49;99115.03;10515934;28;20184;-67
2023/12/09 11:14:47;;;;;;;10.93;3.17;;;;;;;8.72;64.19;99111.28;10497898;28;20046;-67
2023/12/09 11:19:50;;;;;;;5.63;1.92;;;;;;;8.60;63.44;99091.25;10495803;28;20164;-66
2023/12/09 11:24:52;;;;;;;4.45;1.70;;;;;;;8.75;63.82;99077.19;10515514;28;20485;-66
2023/12/09 11:29:54;;;;;;;3.53;2.10;;;;;;;8.88;63.03;99063.34;10509969;28;20048;-67
2023/12/09 11:34:58;;;;;;;6.25;1.67;;;;;;;8.59;63.83;99067.84;10497373;28;20155;-66
2023/12/09 11:40:00;;;;;;;3.30;1.55;;;;;;;8.53;64.04;99053.47;10491752;28;20043;-67
2023/12/09 11:45:03;;;;;;;9.65;2.28;;;;;;;8.29;63.60;99069.84;10477923;28;20260;-67
2023/12/09 11:50:07;;;;;;;3.92;1.85;;;;;;;8.15;64.06;99056.88;10515523;28;20512;-67
2023/12/09 11:55:10;;;;;;;3.08;1.33;;;;;;;8.26;63.64;99025.78;10495838;28;20043;-66
2023/12/09 12:00:13;;;;;;;2.55;1.30;;;;;;;8.48;63.75;99011.25;10516547;28;20044;-66
2023/12/09 12:05:16;;;;;;;3.03;1.55;;;;;;;8.59;63.44;98992.28;10516252;28;20056;-67
2023/12/09 12:10:18;;;;;;;4.43;1.65;;;;;;;8.53;62.98;98972.69;10514432;28;20138;-66
2023/12/09 12:15:20;;;;;;;4.60;2.00;;;;;;;8.50;63.21;98959.03;10514637;28;20514;-66
2023/12/09 12:20:22;;;;;;;2.67;1.40;;;;;;;8.30;63.12;98946.50;10514234;28;20522;-68
2023/12/09 12:25:25;;;;;;;7.85;1.70;;;;;;;8.11;63.61;98944.25;10514485;28;20423;-67
2023/12/09 12:30:27;;;;;;;2.83;1.33;;;;;;;7.86;64.19;98926.75;10513660;28;20404;-67
2023/12/09 12:35:29;;;;;;;2.97;1.92;;;;;;;7.81;64.50;98902.78;10493892;28;20055;-68
2023/12/09 12:40:31;;;;;;;7.47;1.65;;;;;;;7.90;64.36;98880.53;10497035;28;20054;-67
2023/12/09 12:45:36;;;;;;;4.65;1.83;;;;;;;7.93;64.30;98875.13;10480007;28;20040;-67
2023/12/09 12:50:38;;;;;;;3.53;1.40;;;;;;;8.04;64.29;98855.25;10512945;28;20067;-68
2023/12/09 12:55:40;;;;;;;4.05;1.92;;;;;;;7.96;64.62;98859.28;10511234;28;20093;-68
2023/12/09 13:00:42;;;;;;;9.43;2.55;;;;;;;8.00;64.30;98851.19;10495655;28;20457;-67
2023/12/09 13:05:44;;;;;;;6.32;2.10;;;;;;;7.87;64.49;98829.53;10512658;28;20041;-67
2023/12/09 13:10:46;;;;;;;13.23;3.17;;;;;;;7.74;64.42;98805.22;10512897;28;20048;-68
2023/12/09 13:15:48;;;;;;;6.32;2.22;;;;;;;7.79;64.49;98778.91;10512682;28;20138;-67
2023/12/09 13:20:52;;;;;;;5.95;2.13;;;;;;;7.67;64.42;98754.50;10511785;28;20052;-67
2023/12/09 13:25:54;;;;;;;1.88;1.20;;;;;;;7.77;64.44;98728.72;10511041;28;20040;-67
2023/12/09 13:30:56;;;;;;;2.92;1.27;;;;;;;7.80;64.28;98718.94;10490753;28;20083;-67
2023/12/09 13:35:58;;;;;;;3.63;1.60;;;;;;;7.77;64.48;98694.88;10522444;28;20056;-67
2023/12/09 13:41:00;;;;;;;4.07;1.77;;;;;;;7.89;64.66;98681.03;10511029;28;20161;-67
2023/12/09 13:46:02;;;;;;;3.75;1.48;;;;;;;7.76;64.71;98660.22;10510564;28;20128;-67
2023/12/09 13:51:08;;;;;;;10.38;2.38;;;;;;;7.77;64.86;98651.44;10506500;28;20166;-67
2023/12/09 13:56:10;;;;;;;5.72;2.00;;;;;;;7.61;65.23;98634.41;10508577;28;20132;-67
2023/12/09 14:01:12;;;;;;;4.85;1.80;;;;;;;7.47;65.37;98611.91;10505747;28;20140;-68
2023/12/09 14:06:14;;;;;;;5.55;2.35;;;;;;;7.39;65.71;98597.75;10476081;28;20040;-68
2023/12/09 14:11:18;;;;;;;4.07;1.90;;;;;;;7.27;66.03;98594.22;10509347;28;20048;-67
2023/12/09 14:16:21;;;;;;;3.17;1.60;;;;;;;7.20;66.09;98582.59;10510913;28;20480;-68
2023/12/09 14:21:23;;;;;;;6.50;2.28;;;;;;;6.99;66.59;98561.47;10475812;28;20051;-68
2023/12/09 14:26:28;;;;;;;5.13;1.83;;;;;;;7.04;66.66;98548.16;10510581;28;20055;-68
2023/12/09 14:31:30;;;;;;;2.42;1.20;;;;;;;6.91;66.83;98523.91;10508591;28;20066;-68
2023/12/09 14:36:32;;;;;;;2.50;1.48;;;;;;;6.86;66.89;98515.59;10511391;28;20503;-67
2023/12/09 14:41:34;;;;;;;5.88;1.73;;;;;;;6.75;67.10;98515.50;10506705;28;20051;-68
2023/12/09 14:46:36;;;;;;;3.10;1.60;;;;;;;6.77;67.29;98492.84;10490867;28;20044;-67
2023/12/09 14:51:38;;;;;;;4.63;1.95;;;;;;;6.78;67.33;98504.88;10508295;28;20074;-67
2023/12/09 14:56:45;;;;;;;6.82;2.05;;;;;;;6.62;67.47;98491.25;10490321;28;20488;-66
2023/12/09 15:01:47;;;;;;;1.83;1.08;;;;;;;6.58;67.40;98469.00;10514206;28;20113;-66
2023/12/09 15:06:50;;;;;;;2.47;1.45;;;;;;;6.63;67.46;98451.38;10497267;28;20044;-66
2023/12/09 15:11:53;;;;;;;2.47;1.55;;;;;;;6.60;67.54;98431.63;10517103;28;20070;-66
2023/12/09 15:16:55;;;;;;;2.25;1.15;;;;;;;6.69;67.20;98422.38;10516377;28;20044;-67
2023/12/09 15:21:57;;;;;;;1.52;1.00;;;;;;;6.54;67.50;98407.81;10516231;28;20044;-67
2023/12/09 15:27:00;;;;;;;1.08;0.90;;;;;;;6.64;67.42;98375.09;10512220;28;20036;-67
2023/12/09 15:32:02;;;;;;;0.85;0.82;;;;;;;6.62;67.49;98358.78;10512880;28;20052;-67
2023/12/09 15:37:04;;;;;;;1.83;1.10;;;;;;;6.64;67.37;98346.50;10515885;28;20070;-66
2023/12/09 15:42:06;;;;;;;2.80;1.05;;;;;;;6.46;67.61;98308.81;10499385;28;20083;-67
2023/12/09 15:47:11;;;;;;;2.78;1.00;;;;;;;6.50;67.68;98305.91;10515652;28;20043;-66
2023/12/09 15:52:15;;;;;;;2.22;1.20;;;;;;;6.54;67.47;98286.59;10516369;28;20488;-67
2023/12/09 15:57:17;;;;;;;1.92;1.10;;;;;;;6.48;67.71;98268.00;10511659;28;20044;-67
2023/12/09 16:02:20;;;;;;;0.80;0.80;;;;;;;6.45;67.56;98270.81;10512781;28;20397;-67
2023/12/09 16:07:23;;;;;;;0.95;0.80;;;;;;;6.58;67.41;98271.63;10492557;28;20246;-67
2023/12/09 16:12:25;;;;;;;1.33;0.98;;;;;;;6.53;67.45;98258.94;10529579;27;20138;-66
2023/12/09 16:17:27;;;;;;;1.10;0.85;;;;;;;6.60;67.33;98230.78;10493666;28;20527;-67
2023/12/09 16:22:29;;;;;;;1.90;0.80;;;;;;;6.49;67.54;98221.13;10514288;28;20175;-67
2023/12/09 16:27:33;;;;;;;2.35;1.13;;;;;;;6.44;67.82;98196.44;10512535;28;20115;-68
2023/12/09 16:32:36;;;;;;;1.05;0.75;;;;;;;6.55;67.59;98179.16;10514587;28;20503;-66
2023/12/09 16:37:40;;;;;;;1.50;1.13;;;;;;;6.60;67.50;98164.09;10514557;28;20074;-67
2023/12/09 16:42:42;;;;;;;1.00;0.90;;;;;;;6.61;67.58;98152.78;10495873;28;20755;-67
2023/12/09 16:47:44;;;;;;;1.20;1.00;;;;;;;6.56;67.77;98141.88;10513571;28;20042;-67
2023/12/09 16:52:48;;;;;;;0.70;0.68;;;;;;;6.50;68.07;98134.53;10512973;28;20044;-63
2023/12/09 16:57:50;;;;;;;0.75;0.70;;;;;;;6.57;67.93;98111.53;10511378;28;20055;-63
2023/12/09 17:02:52;;;;;;;1.33;0.70;;;;;;;6.64;67.72;98099.75;10492629;28;20126;-63
2023/12/09 17:07:54;;;;;;;2.05;1.00;;;;;;;6.75;67.55;98087.66;10513531;28;20065;-63
2023/12/09 17:12:56;;;;;;;0.65;0.60;;;;;;;6.81;67.50;98081.16;10510475;28;20050;-63
2023/12/09 17:17:58;;;;;;;1.45;0.90;;;;;;;6.85;67.50;98077.41;10511311;28;20040;-64
2023/12/09 17:23:02;;;;;;;1.60;0.85;;;;;;;6.83;67.50;98063.69;10488203;28;20134;-63
2023/12/09 17:28:04;;;;;;;0.80;0.80;;;;;;;6.78;67.79;98060.59;10505695;28;20535;-64
2023/12/09 17:33:06;;;;;;;0.75;0.75;;;;;;;6.74;68.05;98061.75;10512763;28;20044;-63
2023/12/09 17:38:08;;;;;;;2.22;0.90;;;;;;;6.83;67.97;98042.91;10513173;28;20097;-63
2023/12/09 17:43:11;;;;;;;1.75;0.80;;;;;;;6.84;68.00;98034.16;10512003;28;20814;-64
2023/12/09 17:48:13;;;;;;;1.08;0.73;;;;;;;6.88;67.79;98015.63;10512194;28;20435;-64
2023/12/09 17:53:16;;;;;;;0.55;0.55;;;;;;;6.78;68.15;98029.44;10511134;28;20052;-64
2023/12/09 17:58:18;;;;;;;1.48;0.60;;;;;;;6.82;68.07;98005.69;10510885;28;20541;-64
2023/12/09 18:03:20;;;;;;;0.77;0.65;;;;;;;6.80;68.31;97965.19;10490987;28;20044;-63
2023/12/09 18:08:23;;;;;;;1.33;0.98;;;;;;;6.61;68.77;97964.94;10508143;28;20372;-63
2023/12/09 18:13:25;;;;;;;3.47;1.00;;;;;;;6.60;68.99;97929.50;10507209;28;20540;-63
2023/12/09 18:18:30;;;;;;;1.27;0.90;;;;;;;6.68;68.48;97929.75;10509933;28;20047;-64
2023/12/09 18:23:32;;;;;;;0.65;0.65;;;;;;;6.68;68.75;97935.78;10511077;28;20476;-64
2023/12/09 18:28:37;;;;;;;1.27;0.75;;;;;;;6.77;68.80;97932.50;10493763;28;20044;-64
2023/12/09 18:33:39;;;;;;;1.45;1.10;;;;;;;6.79;68.72;97959.19;10497305;28;20069;-64
2023/12/09 18:38:41;;;;;;;0.88;0.77;;;;;;;6.80;68.85;97932.25;10518979;28;20068;-63
2023/12/09 18:43:43;;;;;;;1.42;0.90;;;;;;;6.97;68.72;97915.38;10517569;28;20048;-64
2023/12/09 18:48:46;;;;;;;1.42;0.90;;;;;;;7.06;68.45;97914.69;10517839;28;20051;-64
2023/12/09 18:53:48;;;;;;;1.60;1.10;;;;;;;7.11;68.33;97907.34;10515221;28;20510;-64
2023/12/09 18:58:53;;;;;;;1.77;0.85;;;;;;;7.11;68.21;97902.13;10500089;28;20082;-64
2023/12/09 19:03:56;;;;;;;1.80;0.98;;;;;;;7.00;68.53;97909.94;10496457;28;20047;-64
2023/12/09 19:08:59;;;;;;;1.75;1.10;;;;;;;7.04;68.57;97916.56;10499190;28;20131;-64
2023/12/09 19:14:02;;;;;;;0.73;0.63;;;;;;;7.09;68.36;97924.81;10518250;28;20138;-64
2023/12/09 19:19:04;;;;;;;0.65;0.65;;;;;;;7.12;68.41;97930.59;10517013;28;20119;-64
2023/12/09 19:24:08;;;;;;;1.35;0.65;;;;;;;7.17;68.53;97943.25;10516462;28;20048;-64
2023/12/09 19:29:15;;;;;;;1.70;0.80;;;;;;;7.16;68.53;97941.63;10517147;28;20044;-64
2023/12/09 19:34:18;;;;;;;1.80;0.90;;;;;;;7.03;68.82;97935.69;10516702;28;20047;-64
2023/12/09 19:39:20;;;;;;;1.38;0.70;;;;;;;7.12;68.76;97935.00;10516087;28;20138;-64
2023/12/09 19:44:23;;;;;;;1.15;0.90;;;;;;;7.19;68.77;97957.78;10512969;28;20044;-64
2023/12/09 19:49:25;;;;;;;0.65;0.52;;;;;;;7.25;68.52;97947.84;10515374;28;20052;-64
2023/12/09 19:54:27;;;;;;;1.05;0.80;;;;;;;7.33;68.33;97959.31;10479289;28;20044;-65
2023/12/09 19:59:31;;;;;;;1.77;1.17;;;;;;;7.39;68.34;97960.59;10512599;28;20052;-64
2023/12/09 20:04:33;;;;;;;1.33;0.93;;;;;;;7.20;68.90;97961.22;10493451;28;20051;-64
2023/12/09 20:09:35;;;;;;;0.45;0.45;;;;;;;7.11;69.02;97970.56;10512938;28;20047;-64
2023/12/09 20:14:37;;;;;;;0.75;0.75;;;;;;;7.19;69.04;97989.00;10517041;28;20105;-64
2023/12/09 20:19:39;;;;;;;2.53;0.90;;;;;;;7.09;69.51;97971.59;10517502;28;20102;-65
2023/12/09 20:24:41;;;;;;;0.70;0.60;;;;;;;7.25;69.19;97971.25;10516802;28;20350;-64
2023/12/09 20:29:43;;;;;;;0.60;0.60;;;;;;;7.27;69.12;97983.19;10494789;28;20587;-64
2023/12/09 20:34:45;;;;;;;3.38;1.70;;;;;;;7.12;69.60;98003.38;10514132;28;20058;-64
2023/12/09 20:39:48;;;;;;;0.88;0.60;;;;;;;7.05;69.97;98003.97;10513484;28;20058;-64
2023/12/09 20:44:50;;;;;;;1.33;0.80;;;;;;;7.19;69.59;97998.56;10506284;28;20066;-65
2023/12/09 20:49:52;;;;;;;0.70;0.70;;;;;;;7.26;69.37;98002.34;10510370;28;20043;-64
2023/12/09 20:54:54;;;;;;;0.60;0.60;;;;;;;7.13;70.08;97988.63;10509677;28;20381;-64
2023/12/09 20:59:56;;;;;;;0.93;0.60;;;;;;;7.22;69.87;97987.94;10493439;28;20052;-64
2023/12/09 21:04:59;;;;;;;0.63;0.63;;;;;;;7.27;70.10;97988.38;10513063;28;20058;-64
2023/12/09 21:10:03;;;;;;;0.40;0.40;;;;;;;7.18;71.66;98002.91;10513882;28;20048;-65
2023/12/09 21:15:06;;;;;;;0.40;0.40;;;;;;;7.41;70.84;98029.75;10515615;28;20044;-65
2023/12/09 21:20:08;;;;;;;0.35;0.35;;;;;;;7.34;71.68;98057.19;10514132;28;20125;-64
2023/12/09 21:25:10;;;;;;;0.50;0.50;;;;;;;7.48;71.52;98033.56;10491088;28;20139;-65
2023/12/09 21:30:13;;;;;;;0.55;0.55;;;;;;;7.51;71.60;98035.91;10497481;28;20048;-64
2023/12/09 21:35:15;;;;;;;0.93;0.60;;;;;;;7.49;71.94;98058.59;10515827;28;20040;-64
2023/12/09 21:40:17;;;;;;;0.85;0.60;;;;;;;7.46;72.13;98063.22;10514082;28;20403;-64
2023/12/09 21:45:19;;;;;;;4.07;0.90;;;;;;;7.50;71.81;98091.50;10529806;28;20097;-64
2023/12/09 21:50:22;;;;;;;2.13;0.90;;;;;;;7.48;72.21;98111.59;10514977;28;20483;-64
2023/12/09 21:55:25;;;;;;;0.57;0.57;;;;;;;7.57;71.64;98129.06;10514805;28;20557;-65
2023/12/09 22:00:31;;;;;;;2.58;0.90;;;;;;;7.71;71.31;98164.47;10514693;28;20052;-64
2023/12/09 22:05:34;;;;;;;3.13;1.10;;;;;;;7.89;70.90;98176.06;10515329;28;20071;-64
2023/12/09 22:10:36;;;;;;;1.10;1.00;;;;;;;8.06;70.54;98187.81;10509922;28;20055;-64
2023/12/09 22:15:40;;;;;;;2.53;1.00;;;;;;;8.12;70.46;98197.78;10528261;28;20071;-64
2023/12/09 22:20:42;;;;;;;2.65;0.73;;;;;;;8.35;69.72;98220.25;10527996;28;20967;-64
2023/12/09 22:25:44;;;;;;;1.83;1.15;;;;;;;8.49;69.41;98233.03;10528260;28;20078;-63
2023/12/09 22:30:46;;;;;;;2.40;1.00;;;;;;;8.50;68.79;98240.75;10527099;28;20050;-63
2023/12/09 22:35:48;;;;;;;4.72;1.20;;;;;;;8.48;68.66;98252.22;10510397;28;20044;-64
2023/12/09 22:40:50;;;;;;;4.90;1.30;;;;;;;8.31;68.22;98256.13;10524820;28;20071;-64
2023/12/09 22:45:52;;;;;;;4.40;1.10;;;;;;;8.11;67.92;98271.63;10508040;28;20553;-65
2023/12/09 22:50:54;;;;;;;2.85;1.67;;;;;;;8.16;66.73;98291.13;10527458;28;20051;-65
2023/12/09 22:55:56;;;;;;;7.97;2.08;;;;;;;8.15;66.36;98304.28;10527232;28;20054;-65
2023/12/09 23:01:15;;;;;;;8.18;1.63;;;;;;;8.21;65.46;98325.50;10526319;28;20056;-65
2023/12/09 23:06:18;;;;;;;4.63;1.85;;;;;;;8.37;65.42;98343.38;10527814;28;20152;-65
2023/12/09 23:11:20;;;;;;;4.60;1.55;;;;;;;8.37;64.53;98354.63;10528244;28;20500;-64
2023/12/09 23:16:22;;;;;;;13.73;2.22;;;;;;;8.53;64.76;98362.09;10529089;28;20051;-64
2023/12/09 23:21:24;;;;;;;7.18;2.33;;;;;;;8.44;64.75;98381.06;10505241;28;20928;-64
2023/12/09 23:26:26;;;;;;;6.95;1.83;;;;;;;8.43;64.20;98389.81;10521793;28;20510;-64
2023/12/09 23:31:28;;;;;;;4.43;1.48;;;;;;;8.32;64.83;98405.44;10521652;28;20048;-65
2023/12/09 23:36:41;;;;;;;7.53;2.47;;;;;;;8.39;63.90;98419.63;10505216;28;20047;-65